createdAt,value
2018-03-26T00:00:38.884Z,7.40
2018-03-26T00:01:41.409Z,7.30
2018-03-26T00:02:44.717Z,7.10
2018-03-26T00:03:47.251Z,7.10
2018-03-26T00:04:50.538Z,7.00
2018-03-26T00:05:53.873Z,7.00
2018-03-26T00:06:56.397Z,7.00
2018-03-26T00:07:59.688Z,6.70
2018-03-26T00:09:02.214Z,6.70
2018-03-26T00:10:04.739Z,6.60
2018-03-26T00:11:07.388Z,6.60
2018-03-26T00:12:10.674Z,6.50
2018-03-26T00:13:13.202Z,6.50
2018-03-26T00:14:15.823Z,6.50
2018-03-26T00:15:18.346Z,6.30
2018-03-26T00:16:20.906Z,6.30
2018-03-26T00:17:23.446Z,6.30
2018-03-26T00:18:25.966Z,6.20
2018-03-26T00:19:29.251Z,6.10
2018-03-26T00:20:32.538Z,6.00
2018-03-26T00:21:35.099Z,6.00
2018-03-26T00:22:38.394Z,6.00
2018-03-26T00:23:40.962Z,5.90
2018-03-26T00:24:43.519Z,6.00
2018-03-26T00:25:46.810Z,6.00
2018-03-26T00:26:49.401Z,6.00
2018-03-26T00:27:51.926Z,6.00
2018-03-26T00:28:55.248Z,5.90
2018-03-26T00:29:57.776Z,5.90
2018-03-26T00:31:01.069Z,5.90
2018-03-26T00:32:04.362Z,5.90
2018-03-26T00:33:07.666Z,5.90
2018-03-26T00:34:10.235Z,5.80
2018-03-26T00:35:12.798Z,5.90
2018-03-26T00:36:15.316Z,5.80
2018-03-26T00:37:17.850Z,5.70
2018-03-26T00:38:20.401Z,5.60
2018-03-26T00:39:22.926Z,5.60
2018-03-26T00:40:26.212Z,5.60
2018-03-26T00:41:29.542Z,5.50
2018-03-26T00:42:32.097Z,5.50
2018-03-26T00:43:34.621Z,5.40
2018-03-26T00:44:37.901Z,5.30
2018-03-26T00:45:40.412Z,5.30
2018-03-26T00:46:42.939Z,5.30
2018-03-26T00:47:46.261Z,5.20
2018-03-26T00:48:48.817Z,5.20
2018-03-26T00:49:51.363Z,5.20
2018-03-26T00:50:54.685Z,5.20
2018-03-26T00:51:57.241Z,5.20
2018-03-26T00:53:05.828Z,5.30
2018-03-26T00:54:09.116Z,5.30
2018-03-26T00:55:11.646Z,5.30
2018-03-26T00:56:14.196Z,5.30
2018-03-26T00:57:16.719Z,5.30
2018-03-26T00:58:19.245Z,5.20
2018-03-26T00:59:21.815Z,5.30
2018-03-26T01:00:24.337Z,5.30
2018-03-26T01:01:26.865Z,5.30
2018-03-26T01:02:30.152Z,5.20
2018-03-26T01:03:33.440Z,5.20
2018-03-26T01:04:36.762Z,5.20
2018-03-26T01:05:39.276Z,5.20
2018-03-26T01:06:42.560Z,5.10
2018-03-26T01:07:45.849Z,5.10
2018-03-26T01:08:49.137Z,5.10
2018-03-26T01:09:52.465Z,5.10
2018-03-26T01:10:54.990Z,5.10
2018-03-26T01:11:58.278Z,5.10
2018-03-26T01:13:00.840Z,5.10
2018-03-26T01:14:04.150Z,5.10
2018-03-26T01:15:06.704Z,5.10
2018-03-26T01:16:09.265Z,5.00
2018-03-26T01:17:11.797Z,5.00
2018-03-26T01:18:14.326Z,5.00
2018-03-26T01:19:16.846Z,5.10
2018-03-26T01:20:20.129Z,5.30
2018-03-26T01:21:23.469Z,5.30
2018-03-26T01:22:25.989Z,5.30
2018-03-26T01:23:29.290Z,5.30
2018-03-26T01:24:31.840Z,5.30
2018-03-26T01:25:35.124Z,5.40
2018-03-26T01:26:38.418Z,5.40
2018-03-26T01:27:40.959Z,5.40
2018-03-26T01:28:44.262Z,5.40
2018-03-26T01:29:47.580Z,5.40
2018-03-26T01:30:50.110Z,5.40
2018-03-26T01:31:53.402Z,5.40
2018-03-26T01:32:55.942Z,5.40
2018-03-26T01:33:58.497Z,5.40
2018-03-26T01:35:01.019Z,5.40
2018-03-26T01:36:03.542Z,5.40
2018-03-26T01:37:06.066Z,5.40
2018-03-26T01:38:08.600Z,5.40
2018-03-26T01:39:11.204Z,5.40
2018-03-26T01:40:13.720Z,5.40
2018-03-26T01:41:17.045Z,5.30
2018-03-26T01:42:19.580Z,5.30
2018-03-26T01:43:22.102Z,5.20
2018-03-26T01:44:24.654Z,5.20
2018-03-26T01:45:27.212Z,5.30
2018-03-26T01:46:29.745Z,5.30
2018-03-26T01:47:32.278Z,5.40
2018-03-26T01:48:34.797Z,5.40
2018-03-26T01:49:37.310Z,5.40
2018-03-26T01:50:39.868Z,5.40
2018-03-26T01:51:42.389Z,5.40
2018-03-26T01:52:44.916Z,5.40
2018-03-26T01:53:48.211Z,5.50
2018-03-26T01:54:51.510Z,5.50
2018-03-26T01:55:54.066Z,5.50
2018-03-26T01:56:57.402Z,5.50
2018-03-26T01:57:59.929Z,5.50
2018-03-26T01:59:02.460Z,5.50
2018-03-26T02:00:04.994Z,5.50
2018-03-26T02:01:07.785Z,5.50
2018-03-26T02:02:10.360Z,5.60
2018-03-26T02:03:12.940Z,5.60
2018-03-26T02:04:16.246Z,5.60
2018-03-26T02:05:19.534Z,5.50
2018-03-26T02:06:22.053Z,5.50
2018-03-26T02:07:24.622Z,5.50
2018-03-26T02:08:27.162Z,5.50
2018-03-26T02:09:29.681Z,5.60
2018-03-26T02:10:32.972Z,5.60
2018-03-26T02:11:36.261Z,5.60
2018-03-26T02:12:39.592Z,5.60
2018-03-26T02:13:42.111Z,5.60
2018-03-26T02:14:44.637Z,5.60
2018-03-26T02:15:47.157Z,5.60
2018-03-26T02:16:49.682Z,5.70
2018-03-26T02:17:52.244Z,5.60
2018-03-26T02:18:54.928Z,5.60
2018-03-26T02:19:57.488Z,5.60
2018-03-26T02:21:00.165Z,5.60
2018-03-26T02:22:03.466Z,5.50
2018-03-26T02:23:06.802Z,5.50
2018-03-26T02:24:09.331Z,5.50
2018-03-26T02:25:11.861Z,5.60
2018-03-26T02:26:14.380Z,5.60
2018-03-26T02:27:16.893Z,5.70
2018-03-26T02:28:19.454Z,5.60
2018-03-26T02:29:21.982Z,5.60
2018-03-26T02:30:24.505Z,5.60
2018-03-26T02:31:27.796Z,5.70
2018-03-26T02:32:30.360Z,5.70
2018-03-26T02:33:32.881Z,5.80
2018-03-26T02:34:35.441Z,5.80
2018-03-26T02:35:37.957Z,5.70
2018-03-26T02:36:41.256Z,5.70
2018-03-26T02:37:43.808Z,5.70
2018-03-26T02:38:47.104Z,5.70
2018-03-26T02:39:49.628Z,5.60
2018-03-26T02:40:52.183Z,5.70
2018-03-26T02:41:54.703Z,5.70
2018-03-26T02:42:57.228Z,5.70
2018-03-26T02:43:59.746Z,5.70
2018-03-26T02:45:02.330Z,5.70
2018-03-26T02:46:04.872Z,5.70
2018-03-26T02:47:07.402Z,5.70
2018-03-26T02:48:10.699Z,5.70
2018-03-26T02:49:13.990Z,5.70
2018-03-26T02:50:16.544Z,5.70
2018-03-26T02:51:19.829Z,5.70
2018-03-26T02:52:23.162Z,5.70
2018-03-26T02:53:25.687Z,5.70
2018-03-26T02:54:28.981Z,5.70
2018-03-26T02:55:31.501Z,5.70
2018-03-26T02:56:34.029Z,5.80
2018-03-26T02:57:36.576Z,5.80
2018-03-26T02:58:39.103Z,5.80
2018-03-26T02:59:41.642Z,5.90
2018-03-26T03:00:44.164Z,5.90
2018-03-26T03:01:47.449Z,5.90
2018-03-26T03:02:50.772Z,5.80
2018-03-26T03:03:53.302Z,5.80
2018-03-26T03:04:56.592Z,5.80
2018-03-26T03:05:59.118Z,5.80
2018-03-26T03:07:01.646Z,5.80
2018-03-26T03:08:04.197Z,5.80
2018-03-26T03:09:06.735Z,5.90
2018-03-26T03:10:10.051Z,5.80
2018-03-26T03:11:12.613Z,5.90
2018-03-26T03:12:15.130Z,5.90
2018-03-26T03:13:17.769Z,5.90
2018-03-26T03:14:20.289Z,5.90
2018-03-26T03:15:23.621Z,5.80
2018-03-26T03:16:26.188Z,5.80
2018-03-26T03:17:28.700Z,5.80
2018-03-26T03:18:31.234Z,5.80
2018-03-26T03:19:33.763Z,5.80
2018-03-26T03:20:36.294Z,5.70
2018-03-26T03:21:39.620Z,5.70
2018-03-26T03:22:42.160Z,5.70
2018-03-26T03:23:45.444Z,5.70
2018-03-26T03:24:48.738Z,5.70
2018-03-26T03:25:52.053Z,5.70
2018-03-26T03:26:54.569Z,5.70
2018-03-26T03:27:57.856Z,5.70
2018-03-26T03:29:01.150Z,5.60
2018-03-26T03:30:04.426Z,5.50
2018-03-26T03:31:07.756Z,5.40
2018-03-26T03:32:10.309Z,5.40
2018-03-26T03:33:12.837Z,5.30
2018-03-26T03:34:16.131Z,5.40
2018-03-26T03:35:19.424Z,5.50
2018-03-26T03:36:22.002Z,5.50
2018-03-26T03:37:24.522Z,5.50
2018-03-26T03:38:27.040Z,5.50
2018-03-26T03:39:29.559Z,5.50
2018-03-26T03:40:32.077Z,5.60
2018-03-26T03:41:34.654Z,5.60
2018-03-26T03:42:37.173Z,5.60
2018-03-26T03:43:40.460Z,5.60
2018-03-26T03:44:43.749Z,5.60
2018-03-26T03:45:47.037Z,5.70
2018-03-26T03:46:49.602Z,5.60
2018-03-26T03:47:52.896Z,5.60
2018-03-26T03:48:55.444Z,5.60
2018-03-26T03:49:58.730Z,5.80
2018-03-26T03:51:02.033Z,5.80
2018-03-26T03:52:04.553Z,5.70
2018-03-26T03:53:07.089Z,5.80
2018-03-26T03:54:09.641Z,5.80
2018-03-26T03:55:12.186Z,5.70
2018-03-26T03:56:14.721Z,5.80
2018-03-26T03:57:17.261Z,5.80
2018-03-26T03:58:19.789Z,5.70
2018-03-26T03:59:23.103Z,5.60
2018-03-26T04:00:25.634Z,5.60
2018-03-26T04:01:28.959Z,5.50
2018-03-26T04:02:31.489Z,5.50
2018-03-26T04:03:34.028Z,5.60
2018-03-26T04:04:36.594Z,5.60
2018-03-26T04:05:39.119Z,5.60
2018-03-26T04:06:41.648Z,5.60
2018-03-26T04:07:44.946Z,5.60
2018-03-26T04:08:47.471Z,5.60
2018-03-26T04:09:50.021Z,5.60
2018-03-26T04:10:52.565Z,5.60
2018-03-26T04:11:55.089Z,5.60
2018-03-26T04:12:58.398Z,5.60
2018-03-26T04:14:00.922Z,5.60
2018-03-26T04:15:03.489Z,5.70
2018-03-26T04:16:06.007Z,5.70
2018-03-26T04:17:08.554Z,5.70
2018-03-26T04:18:11.093Z,5.70
2018-03-26T04:19:13.621Z,5.60
2018-03-26T04:20:17.620Z,5.60
2018-03-26T04:21:20.186Z,5.60
2018-03-26T04:22:22.717Z,5.60
2018-03-26T04:23:25.236Z,5.70
2018-03-26T04:24:27.758Z,5.70
2018-03-26T04:25:30.271Z,5.70
2018-03-26T04:26:32.841Z,5.70
2018-03-26T04:27:35.361Z,5.70
2018-03-26T04:28:37.891Z,5.70
2018-03-26T04:29:41.180Z,5.70
2018-03-26T04:30:44.461Z,5.60
2018-03-26T04:31:47.881Z,5.60
2018-03-26T04:32:50.398Z,5.60
2018-03-26T04:33:52.927Z,5.60
2018-03-26T04:34:55.447Z,5.60
2018-03-26T04:35:58.729Z,5.70
2018-03-26T04:37:02.046Z,5.70
2018-03-26T04:38:04.566Z,5.70
2018-03-26T04:39:07.637Z,5.70
2018-03-26T04:40:10.160Z,5.70
2018-03-26T04:41:12.677Z,5.60
2018-03-26T04:42:15.261Z,5.70
2018-03-26T04:43:18.559Z,5.60
2018-03-26T04:44:21.122Z,5.60
2018-03-26T04:45:23.653Z,5.60
2018-03-26T04:46:26.170Z,5.60
2018-03-26T04:47:28.696Z,5.60
2018-03-26T04:48:31.276Z,5.60
2018-03-26T04:49:34.569Z,5.70
2018-03-26T04:50:37.858Z,5.70
2018-03-26T04:51:40.390Z,5.60
2018-03-26T04:52:42.906Z,5.60
2018-03-26T04:53:45.457Z,5.50
2018-03-26T04:54:48.012Z,5.50
2018-03-26T04:55:51.345Z,5.60
2018-03-26T04:56:53.866Z,5.50
2018-03-26T04:57:57.186Z,5.60
2018-03-26T04:58:59.714Z,5.60
2018-03-26T05:00:03.000Z,5.60
2018-03-26T05:01:06.421Z,5.60
2018-03-26T05:02:08.943Z,5.60
2018-03-26T05:03:11.503Z,5.60
2018-03-26T05:04:14.026Z,5.60
2018-03-26T05:05:16.553Z,5.50
2018-03-26T05:06:19.107Z,5.50
2018-03-26T05:07:22.396Z,5.50
2018-03-26T05:08:25.683Z,5.40
2018-03-26T05:09:29.009Z,5.40
2018-03-26T05:10:31.528Z,5.40
2018-03-26T05:11:34.821Z,5.40
2018-03-26T05:12:38.128Z,5.40
2018-03-26T05:13:40.658Z,5.40
2018-03-26T05:14:44.002Z,5.50
2018-03-26T05:15:46.515Z,5.40
2018-03-26T05:16:49.801Z,5.50
2018-03-26T05:17:53.095Z,5.60
2018-03-26T05:18:55.631Z,5.60
2018-03-26T05:19:58.195Z,5.70
2018-03-26T05:21:00.721Z,5.60
2018-03-26T05:22:03.249Z,5.70
2018-03-26T05:23:06.538Z,5.60
2018-03-26T05:24:09.850Z,5.70
2018-03-26T05:25:12.371Z,5.60
2018-03-26T05:26:15.663Z,5.70
2018-03-26T05:27:18.989Z,5.70
2018-03-26T05:28:21.520Z,5.60
2018-03-26T05:29:24.849Z,5.70
2018-03-26T05:30:27.373Z,5.70
2018-03-26T05:31:29.909Z,5.60
2018-03-26T05:32:32.435Z,5.60
2018-03-26T05:33:34.956Z,5.60
2018-03-26T05:34:38.290Z,5.60
2018-03-26T05:35:40.855Z,5.60
2018-03-26T05:36:43.390Z,5.70
2018-03-26T05:37:46.668Z,5.70
2018-03-26T05:38:49.955Z,5.70
2018-03-26T05:39:52.486Z,5.70
2018-03-26T05:40:55.046Z,5.70
2018-03-26T05:41:57.585Z,5.70
2018-03-26T05:43:00.104Z,5.80
2018-03-26T05:44:03.380Z,5.80
2018-03-26T05:45:05.917Z,5.70
2018-03-26T05:46:08.471Z,5.80
2018-03-26T05:47:11.014Z,5.80
2018-03-26T05:48:13.532Z,5.80
2018-03-26T05:49:16.111Z,5.70
2018-03-26T05:50:18.631Z,5.70
2018-03-26T05:51:21.161Z,5.70
2018-03-26T05:52:24.492Z,5.80
2018-03-26T05:53:27.013Z,5.80
2018-03-26T05:54:30.300Z,5.90
2018-03-26T05:55:33.592Z,5.90
2018-03-26T05:56:36.114Z,5.90
2018-03-26T05:57:38.664Z,5.80
2018-03-26T05:58:41.241Z,5.80
2018-03-26T05:59:43.716Z,5.80
2018-03-26T06:00:46.285Z,5.70
2018-03-26T06:01:48.837Z,5.60
2018-03-26T06:02:51.349Z,5.70
2018-03-26T06:03:53.869Z,5.70
2018-03-26T06:04:56.395Z,5.70
2018-03-26T06:05:58.919Z,5.60
2018-03-26T06:07:01.483Z,5.70
2018-03-26T06:08:03.998Z,5.70
2018-03-26T06:09:06.510Z,5.70
2018-03-26T06:10:09.033Z,5.60
2018-03-26T06:11:11.591Z,5.70
2018-03-26T06:12:14.138Z,5.70
2018-03-26T06:13:17.420Z,5.70
2018-03-26T06:14:20.707Z,5.70
2018-03-26T06:15:24.043Z,5.50
2018-03-26T06:16:26.565Z,5.50
2018-03-26T06:17:29.085Z,5.60
2018-03-26T06:18:31.621Z,5.60
2018-03-26T06:19:34.145Z,5.60
2018-03-26T06:20:37.459Z,5.50
2018-03-26T06:21:39.982Z,5.50
2018-03-26T06:22:42.555Z,5.50
2018-03-26T06:23:45.084Z,5.50
2018-03-26T06:24:47.598Z,5.50
2018-03-26T06:25:50.886Z,5.40
2018-03-26T06:26:54.179Z,5.40
2018-03-26T06:27:57.653Z,5.40
2018-03-26T06:29:00.961Z,5.50
2018-03-26T06:30:03.486Z,5.50
2018-03-26T06:31:06.010Z,5.60
2018-03-26T06:32:08.530Z,5.60
2018-03-26T06:33:11.856Z,5.60
2018-03-26T06:34:14.377Z,5.60
2018-03-26T06:35:17.656Z,5.60
2018-03-26T06:36:22.754Z,5.60
2018-03-26T06:37:27.098Z,5.60
2018-03-26T06:38:32.926Z,5.60
2018-03-26T06:39:35.445Z,5.60
2018-03-26T06:40:37.971Z,5.70
2018-03-26T06:41:41.256Z,5.70
2018-03-26T06:42:43.765Z,5.70
2018-03-26T06:43:46.323Z,5.70
2018-03-26T06:44:48.882Z,5.60
2018-03-26T06:45:51.418Z,5.60
2018-03-26T06:46:54.757Z,5.70
2018-03-26T06:47:57.295Z,5.70
2018-03-26T06:48:59.846Z,5.70
2018-03-26T06:50:03.196Z,5.70
2018-03-26T06:51:05.724Z,5.70
2018-03-26T06:52:08.245Z,5.70
2018-03-26T06:53:10.768Z,5.80
2018-03-26T06:54:13.295Z,5.80
2018-03-26T06:55:16.622Z,5.80
2018-03-26T06:56:19.140Z,5.80
2018-03-26T06:57:22.429Z,5.90
2018-03-26T06:58:25.768Z,5.90
2018-03-26T06:59:28.301Z,5.90
2018-03-26T07:00:30.820Z,5.90
2018-03-26T07:01:33.377Z,5.90
2018-03-26T07:02:35.907Z,5.80
2018-03-26T07:03:38.437Z,5.80
2018-03-26T07:04:41.755Z,6.00
2018-03-26T07:05:44.275Z,5.90
2018-03-26T07:06:47.622Z,5.90
2018-03-26T07:07:50.148Z,5.90
2018-03-26T07:08:53.467Z,6.00
2018-03-26T07:09:56.042Z,5.90
2018-03-26T07:10:58.566Z,6.00
2018-03-26T07:12:01.868Z,6.10
2018-03-26T07:13:04.396Z,6.00
2018-03-26T07:14:07.733Z,6.10
2018-03-26T07:15:10.249Z,6.10
2018-03-26T07:16:12.813Z,6.10
2018-03-26T07:17:16.108Z,6.00
2018-03-26T07:18:19.396Z,6.00
2018-03-26T07:19:22.719Z,6.00
2018-03-26T07:20:25.256Z,6.00
2018-03-26T07:21:27.794Z,6.10
2018-03-26T07:22:30.350Z,6.10
2018-03-26T07:23:32.870Z,6.10
2018-03-26T07:24:35.392Z,6.10
2018-03-26T07:25:37.950Z,6.10
2018-03-26T07:26:40.500Z,6.10
2018-03-26T07:27:43.026Z,6.10
2018-03-26T07:28:45.561Z,6.10
2018-03-26T07:29:48.072Z,6.10
2018-03-26T07:30:50.593Z,6.20
2018-03-26T07:31:53.144Z,6.20
2018-03-26T07:32:55.656Z,6.30
2018-03-26T07:33:58.186Z,6.30
2018-03-26T07:35:00.714Z,6.30
2018-03-26T07:36:03.262Z,6.30
2018-03-26T07:37:05.827Z,6.30
2018-03-26T07:38:08.345Z,6.40
2018-03-26T07:39:10.862Z,6.30
2018-03-26T07:40:13.382Z,6.30
2018-03-26T07:41:15.964Z,6.40
2018-03-26T07:42:18.472Z,6.30
2018-03-26T07:43:21.000Z,6.40
2018-03-26T07:44:24.296Z,6.40
2018-03-26T07:45:26.864Z,6.40
2018-03-26T07:46:29.387Z,6.50
2018-03-26T07:47:31.909Z,6.50
2018-03-26T07:48:34.429Z,6.60
2018-03-26T07:49:37.068Z,6.60
2018-03-26T07:50:39.598Z,6.60
2018-03-26T07:51:42.121Z,6.60
2018-03-26T07:52:44.644Z,6.50
2018-03-26T07:53:47.169Z,6.50
2018-03-26T07:54:50.501Z,6.50
2018-03-26T07:55:53.027Z,6.50
2018-03-26T07:56:56.322Z,6.60
2018-03-26T07:57:59.609Z,6.70
2018-03-26T07:59:02.136Z,6.70
2018-03-26T08:00:04.693Z,6.70
2018-03-26T08:01:07.207Z,6.70
2018-03-26T08:02:09.730Z,6.80
2018-03-26T08:03:12.256Z,6.80
2018-03-26T08:04:14.782Z,6.90
2018-03-26T08:05:17.341Z,7.00
2018-03-26T08:06:19.863Z,7.00
2018-03-26T08:07:22.445Z,7.00
2018-03-26T08:08:24.965Z,7.00
2018-03-26T08:09:28.253Z,7.20
2018-03-26T08:10:30.786Z,7.20
2018-03-26T08:11:33.316Z,7.30
2018-03-26T08:12:35.873Z,7.40
2018-03-26T08:13:38.430Z,7.50
2018-03-26T08:14:40.944Z,7.50
2018-03-26T08:15:43.478Z,7.50
2018-03-26T08:16:46.026Z,7.60
2018-03-26T08:17:48.547Z,7.60
2018-03-26T08:18:51.110Z,7.80
2018-03-26T08:19:53.632Z,7.90
2018-03-26T08:20:56.156Z,8.00
2018-03-26T08:21:58.677Z,8.10
2018-03-26T08:23:01.204Z,8.20
2018-03-26T08:24:04.530Z,8.40
2018-03-26T08:25:07.080Z,8.40
2018-03-26T08:26:09.609Z,8.50
2018-03-26T08:27:12.918Z,8.70
2018-03-26T08:28:15.438Z,8.70
2018-03-26T08:29:17.962Z,8.80
2018-03-26T08:30:20.526Z,8.90
2018-03-26T08:31:23.051Z,8.90
2018-03-26T08:32:25.570Z,8.80
2018-03-26T08:33:28.102Z,8.90
2018-03-26T08:34:31.428Z,9.10
2018-03-26T08:35:33.950Z,9.10
2018-03-26T08:36:37.241Z,8.80
2018-03-26T08:37:40.526Z,9.00
2018-03-26T08:38:43.095Z,9.00
2018-03-26T08:39:45.629Z,9.10
2018-03-26T08:40:48.200Z,9.10
2018-03-26T08:41:51.501Z,8.80
2018-03-26T08:42:54.788Z,8.90
2018-03-26T08:43:58.133Z,8.90
2018-03-26T08:45:00.679Z,8.90
2018-03-26T08:46:03.201Z,9.00
2018-03-26T08:48:15.472Z,9.20
2018-03-26T08:49:18.033Z,9.70
2018-03-26T08:50:20.636Z,10.50
2018-03-26T08:51:23.113Z,11.20
2018-03-26T08:52:25.689Z,11.80
2018-03-26T08:53:29.365Z,12.00
2018-03-26T08:54:31.516Z,11.70
2018-03-26T08:55:34.811Z,11.90
2018-03-26T08:56:37.342Z,11.90
2018-03-26T08:57:39.913Z,11.60
2018-03-26T08:58:42.453Z,11.70
2018-03-26T08:59:44.990Z,11.60
2018-03-26T09:00:47.523Z,11.50
2018-03-26T09:01:50.893Z,11.20
2018-03-26T09:02:53.456Z,11.20
2018-03-26T09:03:55.994Z,11.10
2018-03-26T09:04:58.530Z,10.90
2018-03-26T09:06:01.056Z,10.80
2018-03-26T09:07:03.588Z,10.70
2018-03-26T09:08:06.147Z,11.00
2018-03-26T09:09:08.676Z,11.30
2018-03-26T09:10:11.969Z,11.80
2018-03-26T09:11:15.253Z,12.30
2018-03-26T09:12:18.586Z,12.80
2018-03-26T09:13:21.110Z,12.80
2018-03-26T09:14:24.413Z,14.10
2018-03-26T09:15:26.945Z,14.10
2018-03-26T09:16:30.242Z,14.00
2018-03-26T09:17:33.604Z,14.40
2018-03-26T09:18:36.128Z,14.40
2018-03-26T09:19:38.686Z,14.50
2018-03-26T09:20:43.978Z,14.80
2018-03-26T09:21:47.276Z,14.50
2018-03-26T09:22:50.565Z,14.80
2018-03-26T09:23:53.099Z,14.80
2018-03-26T09:24:55.670Z,15.00
2018-03-26T09:25:58.199Z,15.00
2018-03-26T09:27:00.734Z,14.70
2018-03-26T09:28:03.270Z,14.50
2018-03-26T09:29:06.604Z,14.30
2018-03-26T09:30:09.135Z,14.20
2018-03-26T09:31:12.429Z,14.70
2018-03-26T09:32:14.997Z,14.70
2018-03-26T09:33:17.512Z,15.30
2018-03-26T09:34:20.082Z,16.00
2018-03-26T09:35:22.655Z,16.40
2018-03-26T09:36:25.186Z,16.80
2018-03-26T09:37:27.724Z,17.00
2018-03-26T09:38:30.298Z,17.00
2018-03-26T09:39:32.841Z,17.10
2018-03-26T09:40:36.255Z,17.40
2018-03-26T09:41:38.703Z,17.30
2018-03-26T09:42:42.001Z,16.70
2018-03-26T09:43:44.567Z,16.60
2018-03-26T09:44:47.246Z,15.80
2018-03-26T09:45:49.802Z,15.40
2018-03-26T09:46:52.350Z,14.90
2018-03-26T09:47:55.647Z,13.90
2018-03-26T09:48:58.183Z,13.80
2018-03-26T09:50:00.744Z,14.00
2018-03-26T09:51:03.310Z,14.30
2018-03-26T09:52:05.832Z,14.90
2018-03-26T09:53:08.369Z,15.40
2018-03-26T09:54:11.657Z,15.10
2018-03-26T09:55:14.993Z,15.00
2018-03-26T09:56:17.523Z,14.90
2018-03-26T09:57:20.165Z,15.40
2018-03-26T09:58:23.458Z,15.20
2018-03-26T09:59:26.749Z,15.20
2018-03-26T10:00:34.926Z,15.10
2018-03-26T10:01:43.054Z,15.00
2018-03-26T10:02:45.609Z,14.80
2018-03-26T10:03:48.200Z,14.30
2018-03-26T10:04:50.729Z,13.80
2018-03-26T10:05:54.061Z,12.80
2018-03-26T10:06:56.585Z,12.80
2018-03-26T10:07:59.873Z,12.10
2018-03-26T10:09:03.199Z,11.80
2018-03-26T10:10:05.724Z,11.70
2018-03-26T10:11:09.018Z,11.40
2018-03-26T10:12:11.546Z,11.40
2018-03-26T10:13:14.077Z,11.20
2018-03-26T10:14:16.642Z,11.00
2018-03-26T10:15:19.173Z,10.80
2018-03-26T10:16:22.471Z,10.50
2018-03-26T10:17:24.998Z,10.50
2018-03-26T10:18:27.525Z,10.30
2018-03-26T10:19:30.091Z,10.10
2018-03-26T10:20:32.615Z,10.00
2018-03-26T10:21:35.905Z,10.10
2018-03-26T10:22:39.234Z,10.10
2018-03-26T10:23:41.766Z,10.10
2018-03-26T10:24:44.311Z,10.00
2018-03-26T10:25:47.602Z,10.00
2018-03-26T10:26:51.020Z,10.00
2018-03-26T10:27:53.594Z,10.00
2018-03-26T10:28:56.136Z,10.00
2018-03-26T10:29:58.672Z,10.10
2018-03-26T10:31:01.193Z,10.10
2018-03-26T10:32:03.725Z,10.10
2018-03-26T10:33:06.293Z,10.20
2018-03-26T10:34:09.591Z,10.20
2018-03-26T10:35:12.109Z,10.10
2018-03-26T10:36:14.647Z,10.20
2018-03-26T10:37:17.225Z,10.20
2018-03-26T10:38:19.756Z,10.30
2018-03-26T10:39:22.290Z,10.20
2018-03-26T10:40:25.586Z,10.30
2018-03-26T10:41:28.877Z,10.40
2018-03-26T10:42:31.449Z,10.40
2018-03-26T10:43:34.156Z,10.50
2018-03-26T10:44:37.471Z,10.90
2018-03-26T10:45:40.011Z,10.90
2018-03-26T10:46:42.548Z,11.00
2018-03-26T10:47:45.108Z,11.00
2018-03-26T10:48:47.667Z,11.20
2018-03-26T10:49:50.295Z,11.10
2018-03-26T10:50:52.851Z,11.10
2018-03-26T10:51:55.409Z,11.00
2018-03-26T10:52:57.931Z,11.00
2018-03-26T10:54:00.496Z,11.10
2018-03-26T10:55:03.030Z,10.90
2018-03-26T10:56:05.550Z,10.80
2018-03-26T10:57:08.077Z,10.70
2018-03-26T10:58:11.398Z,10.60
2018-03-26T10:59:13.951Z,10.50
2018-03-26T11:00:16.518Z,10.60
2018-03-26T11:01:19.050Z,10.60
2018-03-26T11:02:21.583Z,10.70
2018-03-26T11:03:24.114Z,10.80
2018-03-26T11:04:26.642Z,10.90
2018-03-26T11:05:29.212Z,11.00
2018-03-26T11:06:31.733Z,11.30
2018-03-26T11:07:34.264Z,11.60
2018-03-26T11:08:37.555Z,12.10
2018-03-26T11:09:40.134Z,12.10
2018-03-26T11:10:42.659Z,12.50
2018-03-26T11:11:45.182Z,12.20
2018-03-26T11:12:47.709Z,12.30
2018-03-26T11:13:51.019Z,12.40
2018-03-26T11:14:53.582Z,12.40
2018-03-26T11:15:56.120Z,12.20
2018-03-26T11:16:59.422Z,12.70
2018-03-26T11:18:02.714Z,13.00
2018-03-26T11:19:05.283Z,13.00
2018-03-26T11:20:07.833Z,13.00
2018-03-26T11:21:11.141Z,13.40
2018-03-26T11:22:13.667Z,13.40
2018-03-26T11:23:16.199Z,13.50
2018-03-26T11:24:18.762Z,13.60
2018-03-26T11:25:21.292Z,13.50
2018-03-26T11:26:23.817Z,13.50
2018-03-26T11:27:26.353Z,13.50
2018-03-26T11:28:28.880Z,13.30
2018-03-26T11:29:32.198Z,13.20
2018-03-26T11:30:34.725Z,13.20
2018-03-26T11:31:38.018Z,13.00
2018-03-26T11:32:41.322Z,12.90
2018-03-26T11:33:43.889Z,12.90
2018-03-26T11:34:46.416Z,12.80
2018-03-26T11:35:49.711Z,12.60
2018-03-26T11:36:53.001Z,12.50
2018-03-26T11:37:56.282Z,12.40
2018-03-26T11:38:59.606Z,12.30
2018-03-26T11:40:02.137Z,12.30
2018-03-26T11:41:05.424Z,12.10
2018-03-26T11:42:07.955Z,12.00
2018-03-26T11:43:10.489Z,12.00
2018-03-26T11:44:13.045Z,11.90
2018-03-26T11:45:15.576Z,11.80
2018-03-26T11:46:18.102Z,11.70
2018-03-26T11:47:20.632Z,11.60
2018-03-26T11:48:23.159Z,11.60
2018-03-26T11:49:25.726Z,11.70
2018-03-26T11:50:28.294Z,11.80
2018-03-26T11:51:30.820Z,12.10
2018-03-26T11:52:33.352Z,12.40
2018-03-26T11:53:35.884Z,12.70
2018-03-26T11:54:38.417Z,12.90
2018-03-26T11:55:40.988Z,13.20
2018-03-26T11:56:43.531Z,13.40
2018-03-26T11:57:46.062Z,13.40
2018-03-26T11:58:48.590Z,13.20
2018-03-26T11:59:51.156Z,12.80
2018-03-26T12:00:53.734Z,12.40
2018-03-26T12:01:56.398Z,12.50
2018-03-26T12:02:59.701Z,12.60
2018-03-26T12:04:02.236Z,12.60
2018-03-26T12:05:04.770Z,12.50
2018-03-26T12:06:07.342Z,12.50
2018-03-26T12:07:09.886Z,12.50
2018-03-26T12:08:13.184Z,12.40
2018-03-26T12:09:16.491Z,12.30
2018-03-26T12:10:19.055Z,12.20
2018-03-26T12:11:21.577Z,12.20
2018-03-26T12:12:24.142Z,12.10
2018-03-26T12:13:26.683Z,12.10
2018-03-26T12:14:29.219Z,12.00
2018-03-26T12:15:31.776Z,12.00
2018-03-26T12:16:34.317Z,12.00
2018-03-26T12:17:37.653Z,12.00
2018-03-26T12:18:40.165Z,12.00
2018-03-26T12:19:54.517Z,11.80
2018-03-26T12:21:01.330Z,11.30
2018-03-26T12:22:03.867Z,11.30
2018-03-26T12:23:18.298Z,11.20
2018-03-26T12:24:33.395Z,11.20
2018-03-26T12:25:35.928Z,11.10
2018-03-26T12:26:38.457Z,11.10
2018-03-26T12:27:52.916Z,11.20
2018-03-26T12:29:07.369Z,11.20
2018-03-26T12:30:23.319Z,11.10
2018-03-26T12:31:25.859Z,11.10
2018-03-26T12:32:28.425Z,11.20
2018-03-26T12:33:30.965Z,11.10
2018-03-26T12:34:46.081Z,11.20
2018-03-26T12:35:55.372Z,11.10
2018-03-26T12:36:57.908Z,11.20
2018-03-26T12:38:01.199Z,11.20
2018-03-26T12:39:04.525Z,11.30
2018-03-26T12:40:07.056Z,11.30
2018-03-26T12:41:09.618Z,11.30
2018-03-26T12:42:12.154Z,11.30
2018-03-26T12:43:14.685Z,11.30
2018-03-26T12:44:29.118Z,11.20
2018-03-26T12:45:43.685Z,11.30
2018-03-26T12:46:46.236Z,11.40
2018-03-26T12:47:48.777Z,11.40
2018-03-26T12:48:51.310Z,11.60
2018-03-26T12:49:53.855Z,12.00
2018-03-26T12:51:08.229Z,12.50
2018-03-26T12:52:22.590Z,13.10
2018-03-26T12:53:25.893Z,14.10
2018-03-26T12:54:28.457Z,14.10
2018-03-26T12:55:30.995Z,14.30
2018-03-26T12:56:34.327Z,13.80
2018-03-26T12:57:48.661Z,13.80
2018-03-26T12:58:51.185Z,13.60
2018-03-26T12:59:53.716Z,13.20
2018-03-26T13:01:08.191Z,13.10
2018-03-26T13:02:30.106Z,12.90
2018-03-26T13:03:32.634Z,12.50
2018-03-26T13:04:35.149Z,12.30
2018-03-26T13:05:37.705Z,12.00
2018-03-26T13:06:40.226Z,11.80
2018-03-26T13:07:42.803Z,11.60
2018-03-26T13:08:45.334Z,11.50
2018-03-26T13:09:48.618Z,11.30
2018-03-26T13:10:51.905Z,11.30
2018-03-26T13:11:54.467Z,11.30
2018-03-26T13:12:57.791Z,11.20
2018-03-26T13:14:00.313Z,11.20
2018-03-26T13:15:03.611Z,11.20
2018-03-26T13:16:06.144Z,11.20
2018-03-26T13:17:08.704Z,11.10
2018-03-26T13:18:11.282Z,11.00
2018-03-26T13:19:14.586Z,10.90
2018-03-26T13:20:17.881Z,10.80
2018-03-26T13:21:20.403Z,10.80
2018-03-26T13:22:22.942Z,10.80
2018-03-26T13:23:25.513Z,10.80
2018-03-26T13:24:28.033Z,10.80
2018-03-26T13:25:31.340Z,10.90
2018-03-26T13:26:33.869Z,10.80
2018-03-26T13:27:37.194Z,10.90
2018-03-26T13:28:39.718Z,10.90
2018-03-26T13:29:42.250Z,10.90
2018-03-26T13:30:44.805Z,10.80
2018-03-26T13:31:47.418Z,10.80
2018-03-26T13:32:49.969Z,10.70
2018-03-26T13:33:52.522Z,10.70
2018-03-26T13:34:55.043Z,10.70
2018-03-26T13:35:57.610Z,10.60
2018-03-26T13:37:00.139Z,10.60
2018-03-26T13:38:02.704Z,10.60
2018-03-26T13:39:06.014Z,10.70
2018-03-26T13:40:08.547Z,10.70
2018-03-26T13:41:11.098Z,10.70
2018-03-26T13:42:13.621Z,10.70
2018-03-26T13:43:16.202Z,10.80
2018-03-26T13:44:18.726Z,10.90
2018-03-26T13:45:21.253Z,11.00
2018-03-26T13:46:23.773Z,11.20
2018-03-26T13:47:27.062Z,11.20
2018-03-26T13:48:30.389Z,11.10
2018-03-26T13:49:33.034Z,11.10